Time;durP1;ratioP1;P1;durP2;ratioP2;P2;SDS_P1;SDS_P2;PMS_P1;PMS_P2;Temp;Humidity;BMP_temperature;BMP_pressure;BME280_temperature;BME280_humidity;BME280_pressure;Samples;Min_cycle;Max_cycle;Signal;HPM_P1;HPM_P2
2023/09/28 00:00:49;;;;;;;19.80;13.00;;;;;;;17.26;74.60;99593.21;232901;215;137397;-62
2023/09/28 00:06:02;;;;;;;16.50;11.40;;;;;;;17.22;75.14;99591.74;232989;216;147122;-62
2023/09/28 00:11:06;;;;;;;16.70;11.50;;;;;;;17.20;75.32;99590.29;232980;215;139353;-62
2023/09/28 00:16:09;;;;;;;17.20;12.20;;;;;;;17.23;75.82;99593.06;234641;215;137032;-63
2023/09/28 00:21:12;;;;;;;15.90;12.10;;;;;;;17.25;75.86;99591.79;234757;215;145940;-63
2023/09/28 00:26:16;;;;;;;17.00;12.10;;;;;;;17.30;75.84;99585.86;234731;215;139951;-62
2023/09/28 00:31:20;;;;;;;19.10;12.70;;;;;;;17.29;75.63;99586.67;234506;215;136873;-62
2023/09/28 00:36:24;;;;;;;21.30;12.70;;;;;;;17.26;75.59;99585.14;234534;216;145944;-61
2023/09/28 00:41:27;;;;;;;16.90;10.80;;;;;;;17.21;75.34;99589.81;234667;214;138869;-62
2023/09/28 00:46:35;;;;;;;18.70;11.10;;;;;;;17.17;75.08;99586.77;234733;215;137863;-62
2023/09/28 00:51:39;;;;;;;17.00;12.30;;;;;;;17.11;74.54;99583.66;234672;215;146297;-62
2023/09/28 00:56:42;;;;;;;19.20;11.40;;;;;;;17.06;74.14;99586.39;234345;216;138597;-62
2023/09/28 01:01:47;;;;;;;22.40;11.10;;;;;;;16.95;73.95;99585.31;234474;216;139657;-61
2023/09/28 01:10:29;;;;;;;18.50;11.90;;;;;;;16.79;74.12;99578.66;231425;224;725096;-60
2023/09/28 01:15:35;;;;;;;19.80;11.10;;;;;;;16.70;74.57;99579.71;232932;216;138184;-61
2023/09/28 01:20:47;;;;;;;16.90;11.70;;;;;;;16.65;74.79;99578.48;232932;216;143788;-59
2023/09/28 01:25:50;;;;;;;18.10;12.40;;;;;;;16.63;75.01;99575.63;232945;215;138785;-60
2023/09/28 01:30:55;;;;;;;17.00;12.20;;;;;;;16.60;75.16;99576.56;232972;215;136948;-60
2023/09/28 01:35:59;;;;;;;21.40;12.60;;;;;;;16.55;75.01;99576.38;232931;215;143925;-60
2023/09/28 01:41:04;;;;;;;18.60;12.40;;;;;;;16.47;74.89;99582.93;233038;215;139863;-59
2023/09/28 01:46:09;;;;;;;23.00;13.40;;;;;;;16.40;74.90;99579.39;232944;216;139738;-64
2023/09/28 01:51:15;;;;;;;18.80;11.80;;;;;;;16.35;75.12;99582.63;232826;216;145406;-65
2023/09/28 01:56:21;;;;;;;;;;;;;;;16.26;75.05;99585.58;232708;214;138817;-62
2023/09/28 02:01:27;;;;;;;19.10;13.00;;;;;;;16.23;75.26;99585.86;232990;214;131090;-63
2023/09/28 02:06:36;;;;;;;18.30;13.60;;;;;;;16.23;75.31;99585.00;232803;214;145631;-65
2023/09/28 02:11:43;;;;;;;16.90;12.60;;;;;;;16.19;75.59;99586.90;232802;214;138857;-64
2023/09/28 02:16:50;;;;;;;20.60;13.80;;;;;;;16.16;75.56;99588.52;233006;215;137997;-65
2023/09/28 02:21:53;;;;;;;18.00;12.60;;;;;;;16.11;75.61;99587.50;232924;215;146089;-63
2023/09/28 02:26:59;;;;;;;17.90;11.90;;;;;;;16.04;75.63;99589.79;232982;215;138860;-64
2023/09/28 02:32:06;;;;;;;17.60;11.90;;;;;;;16.00;75.78;99589.96;232808;215;138141;-65
2023/09/28 02:37:12;;;;;;;15.90;12.00;;;;;;;16.01;75.79;99594.87;232837;215;146012;-63
2023/09/28 02:42:17;;;;;;;17.80;12.90;;;;;;;16.02;75.71;99594.29;232753;215;138121;-61
2023/09/28 02:47:24;;;;;;;19.20;12.40;;;;;;;15.99;75.66;99594.64;233088;215;137636;-62
2023/09/28 02:52:28;;;;;;;22.50;12.80;;;;;;;15.95;75.63;99591.21;232908;214;145613;-63
2023/09/28 02:57:34;;;;;;;21.40;13.60;;;;;;;15.91;75.60;99600.83;232926;215;138860;-62
2023/09/28 03:02:38;;;;;;;24.20;12.70;;;;;;;15.84;75.81;99592.94;232885;215;137962;-62
2023/09/28 03:07:43;;;;;;;;;;;;;;;15.79;75.72;99594.05;233009;215;145585;-62
2023/09/28 03:12:47;;;;;;;18.10;12.20;;;;;;;15.78;75.73;99590.84;232851;215;139495;-62
2023/09/28 03:17:53;;;;;;;22.50;12.90;;;;;;;15.79;75.65;99592.03;233000;215;136851;-65
2023/09/28 03:22:58;;;;;;;19.30;12.70;;;;;;;15.77;75.56;99593.08;232962;215;146588;-64
2023/09/28 03:28:04;;;;;;;22.40;13.30;;;;;;;15.71;75.43;99592.15;232880;215;138823;-64
2023/09/28 03:33:09;;;;;;;20.90;12.80;;;;;;;15.64;75.49;99593.20;232975;215;140928;-64
2023/09/28 03:38:15;;;;;;;169.80;117.70;;;;;;;15.58;75.70;99596.41;232798;215;148014;-66
2023/09/28 03:43:19;;;;;;;55.00;40.10;;;;;;;15.58;75.82;99598.94;232863;215;140196;-66
2023/09/28 03:48:23;;;;;;;58.60;44.30;;;;;;;15.61;75.67;99599.11;232784;215;139164;-65
2023/09/28 03:53:32;;;;;;;151.30;112.50;;;;;;;15.61;75.55;99597.14;233516;215;146162;-65
2023/09/28 03:58:36;;;;;;;18.20;13.00;;;;;;;15.58;75.56;99590.19;232992;215;139729;-65
2023/09/28 04:03:41;;;;;;;21.90;13.00;;;;;;;15.54;75.22;99587.11;232959;213;140267;-63
2023/09/28 04:08:45;;;;;;;24.80;12.90;;;;;;;15.47;75.21;99587.05;233023;215;147205;-64
2023/09/28 04:13:50;;;;;;;29.50;12.00;;;;;;;15.36;75.50;99585.88;233027;215;138763;-64
2023/09/28 04:38:07;;;;;;;26.70;12.20;;;;;;;15.32;73.91;99594.61;232912;215;139426;-62
2023/09/28 04:43:11;;;;;;;23.70;12.20;;;;;;;15.23;74.13;99599.38;233033;215;146204;-64
2023/09/28 04:48:15;;;;;;;21.30;11.80;;;;;;;15.09;74.20;99603.98;232960;215;138714;-60
2023/09/28 04:53:19;;;;;;;22.00;11.30;;;;;;;14.95;74.42;99607.08;233155;215;137924;-61
2023/09/28 04:58:23;;;;;;;24.30;11.80;;;;;;;14.93;74.84;99606.69;232862;215;145774;-63
2023/09/28 05:03:27;;;;;;;22.70;11.80;;;;;;;14.95;74.92;99602.63;232959;215;139335;-66
2023/09/28 05:08:31;;;;;;;22.80;11.80;;;;;;;14.95;74.94;99602.63;232885;215;137060;-64
2023/09/28 05:13:35;;;;;;;23.20;12.10;;;;;;;14.92;75.09;99605.70;232979;215;145855;-66
2023/09/28 05:18:39;;;;;;;19.60;13.40;;;;;;;14.89;75.38;99607.88;232879;215;139633;-67
2023/09/28 05:23:43;;;;;;;23.10;13.10;;;;;;;14.88;75.64;99611.35;233050;215;137656;-64
2023/09/28 05:28:47;;;;;;;26.60;12.70;;;;;;;14.93;75.89;99612.59;233030;216;146936;-64
2023/09/28 05:33:51;;;;;;;21.00;11.80;;;;;;;14.99;76.12;99617.89;232880;215;138865;-65
2023/09/28 05:38:55;;;;;;;21.10;12.60;;;;;;;15.05;76.35;99622.14;232975;215;137113;-64
2023/09/28 05:43:59;;;;;;;18.70;12.60;;;;;;;15.13;76.74;99627.80;232911;215;145812;-64
2023/09/28 05:49:03;;;;;;;25.50;14.20;;;;;;;15.20;76.98;99634.28;232851;215;138923;-62
2023/09/28 05:54:07;;;;;;;21.00;13.20;;;;;;;15.24;77.14;99634.36;233125;215;137809;-62
2023/09/28 05:59:11;;;;;;;28.10;12.20;;;;;;;15.26;77.28;99637.92;233064;215;145620;-61
2023/09/28 06:04:14;;;;;;;23.80;12.50;;;;;;;15.31;77.34;99642.73;232922;215;140689;-61
2023/09/28 06:09:21;;;;;;;39.00;15.40;;;;;;;15.36;77.18;99642.58;233002;215;137165;-62
2023/09/28 06:14:25;;;;;;;39.50;14.90;;;;;;;15.46;77.28;99645.27;233080;216;147029;-66
2023/09/28 06:19:28;;;;;;;34.90;15.20;;;;;;;15.53;77.28;99648.49;232945;215;138469;-64
2023/09/28 06:24:38;;;;;;;25.20;13.60;;;;;;;15.57;77.34;99652.18;232911;215;137015;-62
2023/09/28 06:29:41;;;;;;;22.10;13.50;;;;;;;15.58;77.50;99648.16;233151;216;147717;-68
2023/09/28 06:34:45;;;;;;;16.70;10.30;;;;;;;15.63;77.52;99657.10;232925;215;141758;-63
2023/09/28 06:39:48;;;;;;;15.20;9.20;;;;;;;15.67;77.50;99654.52;232986;215;137892;-66
2023/09/28 06:44:53;;;;;;;22.00;10.60;;;;;;;15.76;77.71;99650.82;232976;215;145572;-64
2023/09/28 06:49:57;;;;;;;19.70;11.30;;;;;;;15.86;77.97;99650.95;232971;215;139219;-64
2023/09/28 06:55:03;;;;;;;15.40;12.10;;;;;;;15.96;78.08;99654.33;233052;216;136672;-62
2023/09/28 07:00:09;;;;;;;19.00;12.80;;;;;;;16.06;78.51;99658.02;233102;215;144426;-60
2023/09/28 07:05:14;;;;;;;24.70;12.80;;;;;;;16.18;78.41;99658.79;233133;215;138310;-68
2023/09/28 07:10:20;;;;;;;17.90;11.60;;;;;;;16.30;78.51;99660.85;233039;215;138486;-67
2023/09/28 07:15:23;;;;;;;20.20;12.10;;;;;;;16.53;78.33;99660.02;232903;215;146113;-68
2023/09/28 07:20:27;;;;;;;20.70;12.60;;;;;;;16.80;78.25;99656.38;232935;215;139802;-67
2023/09/28 07:25:31;;;;;;;26.60;12.30;;;;;;;17.05;77.64;99654.08;233040;215;136751;-68
2023/09/28 07:30:35;;;;;;;25.60;12.40;;;;;;;17.32;76.95;99654.02;232829;215;147065;-65
2023/09/28 07:35:40;;;;;;;25.00;12.00;;;;;;;17.53;76.91;99651.98;232980;215;138792;-63
2023/09/28 07:40:44;;;;;;;28.80;11.60;;;;;;;17.70;76.62;99647.01;232961;215;136909;-60
2023/09/28 07:45:50;;;;;;;;;;;;;;;17.93;75.48;99642.80;233010;215;145838;-67
2023/09/28 07:50:53;;;;;;;23.80;10.10;;;;;;;18.22;74.23;99638.94;232928;215;140941;-70
2023/09/28 07:55:57;;;;;;;23.60;9.50;;;;;;;18.52;73.14;99640.71;232904;215;136940;-67
2023/09/28 08:01:01;;;;;;;31.60;9.70;;;;;;;18.77;72.55;99635.02;232934;215;145929;-58
2023/09/28 08:06:05;;;;;;;19.70;9.00;;;;;;;18.89;71.05;99629.50;233088;215;138577;-65
2023/09/28 08:11:12;;;;;;;23.70;9.20;;;;;;;19.06;70.20;99627.66;232840;215;137090;-63
2023/09/28 08:16:16;;;;;;;19.40;9.20;;;;;;;19.25;70.19;99623.84;232976;215;146390;-61
2023/09/28 08:21:26;;;;;;;25.00;10.60;;;;;;;19.39;70.33;99622.52;232949;215;140125;-63
2023/09/28 08:26:31;;;;;;;28.50;10.50;;;;;;;19.55;71.19;99623.83;232969;215;137186;-65
2023/09/28 08:31:35;;;;;;;30.80;10.30;;;;;;;19.73;71.97;99618.65;232905;215;145824;-65
2023/09/28 08:36:39;;;;;;;32.50;10.90;;;;;;;19.96;72.00;99616.86;232815;215;139809;-68
2023/09/28 08:41:44;;;;;;;30.40;10.20;;;;;;;20.21;71.73;99614.20;233061;215;137721;-66
2023/09/28 08:46:48;;;;;;;;;;;;;;;20.44;71.24;99614.17;233004;215;144640;-65
2023/09/28 08:51:55;;;;;;;23.70;10.30;;;;;;;20.65;71.00;99611.56;233015;215;138842;-65
2023/09/28 08:56:59;;;;;;;34.70;11.20;;;;;;;20.83;70.42;99610.02;233032;214;138172;-65
2023/09/28 09:02:05;;;;;;;26.80;11.30;;;;;;;21.00;70.12;99608.00;232851;215;145652;-64
2023/09/28 09:07:10;;;;;;;35.30;11.00;;;;;;;21.16;69.78;99608.11;232964;215;139966;-67
2023/09/28 09:12:13;;;;;;;;;;;;;;;21.31;69.29;99608.13;233178;215;137033;-68
2023/09/28 09:17:17;;;;;;;25.90;9.10;;;;;;;21.47;68.62;99608.12;233134;215;145941;-68
2023/09/28 09:22:25;;;;;;;28.00;9.50;;;;;;;21.68;67.79;99608.23;232947;215;139915;-67
2023/09/28 09:27:32;;;;;;;21.90;9.30;;;;;;;21.89;66.83;99607.09;232952;215;136692;-66
2023/09/28 09:32:37;;;;;;;17.90;9.40;;;;;;;22.05;66.40;99595.33;232987;215;145745;-65
2023/09/28 09:37:44;;;;;;;15.10;9.00;;;;;;;22.20;65.50;99599.31;232869;215;140276;-68
2023/09/28 09:42:48;;;;;;;24.50;8.90;;;;;;;22.33;65.13;99593.27;233030;215;137987;-67
2023/09/28 09:47:52;;;;;;;19.60;9.00;;;;;;;22.50;65.15;99587.74;233010;215;148003;-66
2023/09/28 09:52:57;;;;;;;18.10;8.70;;;;;;;22.67;63.87;99588.17;232869;215;140392;-61
2023/09/28 09:58:02;;;;;;;22.60;7.80;;;;;;;22.85;62.69;99589.83;232948;215;136798;-61
2023/09/28 10:03:08;;;;;;;19.00;8.30;;;;;;;23.06;61.57;99589.46;232951;215;148753;-65
2023/09/28 10:08:14;;;;;;;19.40;8.10;;;;;;;23.27;61.11;99589.65;232928;215;138896;-65
2023/09/28 10:13:18;;;;;;;16.50;7.60;;;;;;;23.48;60.11;99583.73;232859;215;137331;-63
2023/09/28 10:18:22;;;;;;;112.50;87.30;;;;;;;23.67;59.22;99579.75;232839;215;147772;-62
2023/09/28 10:23:28;;;;;;;58.70;30.30;;;;;;;23.91;59.22;99576.96;232965;215;139378;-66
2023/09/28 10:28:36;;;;;;;27.00;9.60;;;;;;;24.09;58.33;99575.56;232870;215;137944;-64
2023/09/28 10:34:03;;;;;;;24.40;8.00;;;;;;;24.21;55.87;99571.31;232881;215;148394;-65
2023/09/28 10:39:16;;;;;;;23.80;9.20;;;;;;;24.32;55.93;99573.36;232793;215;139612;-64
2023/09/28 10:44:21;;;;;;;18.80;9.00;;;;;;;24.40;55.93;99572.23;233021;215;140136;-65
2023/09/28 10:49:27;;;;;;;20.20;9.30;;;;;;;24.44;55.99;99570.80;232898;215;148676;-65
2023/09/28 10:54:31;;;;;;;23.30;9.30;;;;;;;24.48;56.18;99568.66;232771;215;142266;-65
2023/09/28 10:59:37;;;;;;;19.30;9.10;;;;;;;24.52;55.82;99563.48;232951;215;137052;-66
2023/09/28 11:04:41;;;;;;;29.30;12.20;;;;;;;24.57;55.69;99558.20;232887;215;146621;-64
2023/09/28 11:09:54;;;;;;;19.30;7.70;;;;;;;24.67;55.69;99555.33;232869;215;138657;-63
2023/09/28 11:14:58;;;;;;;15.40;7.60;;;;;;;24.65;54.81;99556.65;232824;215;137051;-60
2023/09/28 11:20:03;;;;;;;14.50;7.60;;;;;;;24.67;54.13;99551.48;232927;215;148011;-62
2023/09/28 11:25:07;;;;;;;445.40;378.30;;;;;;;24.73;53.93;99549.90;232806;215;138784;-61
2023/09/28 11:30:19;;;;;;;21.90;14.90;;;;;;;24.88;53.89;99542.05;232919;215;137898;-61
2023/09/28 11:35:25;;;;;;;18.10;10.20;;;;;;;25.06;53.30;99543.61;232943;215;148234;-62
2023/09/28 11:40:30;;;;;;;14.30;7.60;;;;;;;25.14;53.40;99534.51;232790;215;139581;-62
2023/09/28 11:45:35;;;;;;;59.50;42.20;;;;;;;25.30;53.24;99528.83;232877;215;136688;-63
2023/09/28 11:50:39;;;;;;;11.80;7.60;;;;;;;25.58;52.84;99522.64;232918;215;149256;-62
2023/09/28 11:55:47;;;;;;;11.00;7.00;;;;;;;25.82;52.40;99521.52;232751;215;137615;-61
2023/09/28 12:00:51;;;;;;;12.60;7.10;;;;;;;25.96;51.89;99517.09;232905;215;137120;-61
2023/09/28 12:05:55;;;;;;;10.20;6.60;;;;;;;26.07;51.21;99508.70;232950;214;148206;-61
2023/09/28 12:10:59;;;;;;;11.90;5.70;;;;;;;26.01;50.29;99506.30;232807;215;139892;-61
2023/09/28 12:16:05;;;;;;;7.50;4.90;;;;;;;25.86;48.91;99504.44;232892;215;137242;-61
2023/09/28 12:21:09;;;;;;;8.50;4.40;;;;;;;25.67;49.20;99503.46;232873;215;147913;-62
2023/09/28 12:26:13;;;;;;;10.20;5.00;;;;;;;25.53;49.48;99502.06;232950;215;138901;-63
2023/09/28 12:31:17;;;;;;;8.50;4.80;;;;;;;25.46;49.65;99503.48;232788;215;136951;-62
2023/09/28 12:36:21;;;;;;;7.30;4.70;;;;;;;25.35;49.64;99499.82;233014;215;148658;-62
2023/09/28 12:41:26;;;;;;;8.10;5.10;;;;;;;25.17;50.16;99498.17;232953;215;139871;-63
2023/09/28 12:46:30;;;;;;;7.30;5.20;;;;;;;25.06;50.44;99495.68;232852;214;137115;-63
2023/09/28 12:51:36;;;;;;;115.20;92.90;;;;;;;24.99;51.27;99497.54;232841;214;147931;-65
2023/09/28 12:56:41;;;;;;;12.30;8.20;;;;;;;25.12;51.51;99493.65;232870;215;139635;-62
2023/09/28 13:01:47;;;;;;;5.90;5.10;;;;;;;25.27;51.19;99492.00;232929;213;137060;-61
2023/09/28 13:06:52;;;;;;;8.30;5.30;;;;;;;25.37;51.36;99492.61;232852;215;147531;-64
2023/09/28 13:11:57;;;;;;;10.60;5.40;;;;;;;25.63;51.43;99488.87;232977;215;139342;-63
2023/09/28 13:17:02;;;;;;;7.70;5.30;;;;;;;25.95;50.91;99485.48;233065;215;137535;-64
2023/09/28 13:22:08;;;;;;;89.60;80.20;;;;;;;26.33;50.99;99481.91;232827;215;146629;-64
2023/09/28 13:27:12;;;;;;;10.90;7.50;;;;;;;26.79;50.30;99478.36;232870;215;138936;-63
2023/09/28 13:32:17;;;;;;;10.60;5.20;;;;;;;27.01;49.10;99476.05;232850;215;137391;-60
2023/09/28 13:37:21;;;;;;;6.40;5.00;;;;;;;26.92;48.73;99472.02;232873;215;147147;-64
2023/09/28 13:42:24;;;;;;;8.40;5.60;;;;;;;26.68;48.73;99473.00;233038;215;140123;-62
2023/09/28 13:47:28;;;;;;;127.40;113.50;;;;;;;26.38;49.09;99476.13;232982;215;137994;-62
2023/09/28 13:52:32;;;;;;;20.90;13.80;;;;;;;26.13;49.52;99473.67;232881;215;149123;-62
2023/09/28 13:57:36;;;;;;;9.10;5.90;;;;;;;25.93;49.65;99471.56;232758;215;139890;-62
2023/09/28 14:02:44;;;;;;;;;;;;;;;25.68;49.81;99468.42;232826;215;136781;-58
2023/09/28 14:07:48;;;;;;;64.80;47.00;;;;;;;25.45;50.02;99463.84;232837;215;146245;-61
2023/09/28 14:12:52;;;;;;;11.90;7.20;;;;;;;25.35;50.45;99461.39;232777;215;139336;-62
2023/09/28 14:17:57;;;;;;;10.30;5.70;;;;;;;25.24;50.85;99466.50;233008;215;136711;-62
2023/09/28 14:23:01;;;;;;;14.50;6.90;;;;;;;25.14;51.45;99460.11;232847;215;148003;-61
2023/09/28 14:28:06;;;;;;;189.10;151.80;;;;;;;25.04;52.67;99459.02;232774;215;140222;-59
2023/09/28 14:33:10;;;;;;;18.80;10.70;;;;;;;24.95;52.12;99455.10;232768;215;137748;-61
2023/09/28 14:38:15;;;;;;;10.80;5.80;;;;;;;24.83;52.55;99452.37;232925;215;147734;-60
2023/09/28 14:43:18;;;;;;;13.20;5.00;;;;;;;24.70;52.62;99454.06;232864;215;139705;-63
2023/09/28 14:48:22;;;;;;;13.90;7.70;;;;;;;24.62;52.67;99456.98;233002;215;137909;-61
2023/09/28 14:53:26;;;;;;;416.30;345.00;;;;;;;24.54;53.05;99454.83;232810;215;148433;-63
2023/09/28 14:58:30;;;;;;;184.50;147.30;;;;;;;24.49;52.81;99456.64;232823;215;139481;-62
2023/09/28 15:03:34;;;;;;;150.60;126.40;;;;;;;24.48;53.24;99454.23;232879;215;137711;-62
2023/09/28 15:08:38;;;;;;;27.90;18.90;;;;;;;24.49;53.43;99450.15;232895;215;149544;-62
2023/09/28 15:13:43;;;;;;;12.20;8.70;;;;;;;24.44;53.46;99451.94;232739;215;137796;-64
2023/09/28 15:18:47;;;;;;;11.60;6.00;;;;;;;24.33;53.23;99449.34;232849;215;139397;-65
2023/09/28 15:23:51;;;;;;;13.40;6.30;;;;;;;24.24;52.94;99446.23;232943;215;147556;-63
2023/09/28 15:28:56;;;;;;;13.70;5.70;;;;;;;24.14;53.68;99442.56;232775;215;138415;-64
2023/09/28 15:33:59;;;;;;;417.70;365.00;;;;;;;24.07;53.82;99449.85;232778;215;137538;-62
2023/09/28 15:39:03;;;;;;;63.30;50.90;;;;;;;24.02;54.57;99446.81;232862;215;147600;-64
2023/09/28 15:44:08;;;;;;;21.90;14.60;;;;;;;23.91;54.94;99454.86;232709;215;140151;-66
2023/09/28 15:49:11;;;;;;;27.50;20.00;;;;;;;23.73;56.07;99459.10;232792;215;136819;-64
2023/09/28 15:54:14;;;;;;;21.10;11.50;;;;;;;23.54;56.95;99453.77;232879;215;148561;-61
2023/09/28 15:59:18;;;;;;;19.10;11.70;;;;;;;23.37;57.49;99453.47;232758;214;138133;-65
2023/09/28 16:04:22;;;;;;;18.70;9.00;;;;;;;23.21;57.82;99456.63;232790;215;137045;-64
2023/09/28 16:09:26;;;;;;;16.60;7.10;;;;;;;23.08;57.81;99455.34;232861;215;148375;-64
2023/09/28 16:14:32;;;;;;;18.80;7.70;;;;;;;22.98;58.09;99452.83;232818;215;138601;-64
2023/09/28 16:19:35;;;;;;;109.40;84.20;;;;;;;22.89;58.07;99449.20;232920;215;150853;-63
2023/09/28 16:24:39;;;;;;;23.20;15.10;;;;;;;22.83;58.23;99450.94;232861;215;148217;-62
2023/09/28 16:29:43;;;;;;;22.30;12.10;;;;;;;22.73;58.80;99449.61;232897;215;138382;-63
2023/09/28 16:34:48;;;;;;;14.00;9.60;;;;;;;22.63;58.98;99451.02;232801;215;137200;-63
2023/09/28 16:39:51;;;;;;;14.50;7.90;;;;;;;22.54;59.31;99446.04;232868;215;148228;-64
2023/09/28 16:44:55;;;;;;;17.30;8.80;;;;;;;22.46;59.68;99449.23;232825;215;139609;-64
2023/09/28 16:49:58;;;;;;;23.30;10.50;;;;;;;22.38;59.86;99446.08;232889;215;138103;-62
2023/09/28 16:55:05;;;;;;;16.70;8.10;;;;;;;22.30;60.43;99450.72;232901;215;148649;-61
2023/09/28 17:00:09;;;;;;;18.90;7.20;;;;;;;22.20;60.84;99452.67;232968;215;139017;-62
2023/09/28 17:05:13;;;;;;;;;;;;;;;22.12;61.31;99450.56;232835;215;137658;-64
2023/09/28 17:10:23;;;;;;;499.30;410.60;;;;;;;22.05;61.81;99446.05;232988;215;147031;-62
2023/09/28 17:15:29;;;;;;;47.70;33.90;;;;;;;22.06;62.47;99446.66;232904;215;140323;-61
2023/09/28 17:20:34;;;;;;;22.80;10.50;;;;;;;21.98;61.15;99455.67;232778;215;137558;-58
2023/09/28 17:25:38;;;;;;;17.90;7.90;;;;;;;21.85;60.76;99456.45;232805;215;149428;-62
2023/09/28 17:30:41;;;;;;;17.60;8.40;;;;;;;21.75;60.86;99462.51;232975;215;139645;-61
2023/09/28 17:35:45;;;;;;;18.00;9.00;;;;;;;21.67;61.47;99465.29;232919;215;137109;-58
2023/09/28 17:40:49;;;;;;;19.20;11.00;;;;;;;21.65;62.01;99463.36;232885;215;148413;-59
2023/09/28 17:45:54;;;;;;;25.20;13.10;;;;;;;21.60;62.20;99466.91;232834;215;139999;-60
2023/09/28 17:50:58;;;;;;;;;;;;;;;21.53;62.92;99469.99;233026;215;138248;-59
2023/09/28 17:56:02;;;;;;;20.60;11.00;;;;;;;21.45;62.84;99475.34;232943;215;148809;-59
2023/09/28 18:01:07;;;;;;;26.30;20.10;;;;;;;21.36;63.07;99474.22;232838;215;138772;-61
2023/09/28 18:06:11;;;;;;;50.20;33.90;;;;;;;21.31;63.66;99474.68;232897;215;137746;-61
2023/09/28 18:11:15;;;;;;;20.90;10.90;;;;;;;21.23;63.88;99480.55;232806;215;147718;-58
2023/09/28 18:16:19;;;;;;;20.80;12.30;;;;;;;21.10;64.19;99491.20;232748;215;138951;-59
2023/09/28 18:21:23;;;;;;;26.40;12.20;;;;;;;21.00;64.42;99491.66;232975;215;137048;-61
2023/09/28 18:26:27;;;;;;;24.30;12.80;;;;;;;20.89;64.74;99494.33;232866;215;148320;-61
2023/09/28 18:31:31;;;;;;;23.00;12.90;;;;;;;20.79;65.07;99500.21;232882;215;137638;-60
2023/09/28 18:36:36;;;;;;;23.30;13.90;;;;;;;20.66;65.65;99505.28;232755;214;137836;-60
2023/09/28 18:41:47;;;;;;;25.50;13.50;;;;;;;20.53;66.18;99504.71;232860;215;147502;-60
2023/09/28 18:46:52;;;;;;;23.80;14.20;;;;;;;20.39;66.68;99511.92;232882;215;139854;-60
2023/09/28 18:51:56;;;;;;;158.20;129.00;;;;;;;20.31;67.69;99514.67;232834;215;138168;-60
2023/09/28 18:57:04;;;;;;;26.30;14.50;;;;;;;20.31;67.67;99519.04;232965;215;148817;-59
2023/09/28 19:02:07;;;;;;;28.30;14.60;;;;;;;20.22;67.77;99521.00;232778;215;139343;-62
2023/09/28 19:07:11;;;;;;;33.60;14.00;;;;;;;20.14;68.03;99521.40;232818;215;137062;-60
2023/09/28 19:12:15;;;;;;;27.10;14.90;;;;;;;20.05;68.15;99531.77;232920;215;149292;-58
2023/09/28 19:17:18;;;;;;;28.40;14.40;;;;;;;19.93;68.43;99535.24;232895;215;138906;-61
2023/09/28 19:22:22;;;;;;;22.10;13.80;;;;;;;19.83;68.73;99539.03;232727;215;138200;-60
2023/09/28 19:27:27;;;;;;;23.70;14.20;;;;;;;19.74;69.25;99544.00;232876;215;149372;-61
2023/09/28 19:32:42;;;;;;;;;;;;;;;19.67;69.40;99545.24;232815;215;139320;-60
2023/09/28 19:37:46;;;;;;;24.60;14.50;;;;;;;19.58;69.66;99551.53;232969;215;133082;-58
2023/09/28 19:42:49;;;;;;;25.40;13.20;;;;;;;19.47;69.84;99555.39;232869;215;147349;-60
2023/09/28 19:47:53;;;;;;;21.00;13.00;;;;;;;19.39;70.40;99552.73;232947;215;138755;-60
2023/09/28 19:52:57;;;;;;;25.00;14.20;;;;;;;19.38;70.53;99550.67;232927;215;137290;-61
2023/09/28 19:58:01;;;;;;;23.90;13.50;;;;;;;19.38;70.65;99553.88;232634;215;149071;-58
2023/09/28 20:03:05;;;;;;;28.20;13.80;;;;;;;19.37;70.66;99559.77;232767;215;138057;-60
2023/09/28 20:08:09;;;;;;;25.40;13.60;;;;;;;19.31;70.99;99556.86;232852;215;137168;-59
2023/09/28 20:13:12;;;;;;;24.80;13.60;;;;;;;19.22;70.96;99562.55;232816;215;148225;-59
2023/09/28 20:18:16;;;;;;;28.90;14.10;;;;;;;19.11;71.17;99565.29;232879;214;141034;-59
2023/09/28 20:23:20;;;;;;;24.40;13.10;;;;;;;19.01;71.23;99565.10;232920;215;137309;-62
2023/09/28 20:28:25;;;;;;;20.00;12.30;;;;;;;18.93;71.61;99569.50;232858;215;146678;-60
2023/09/28 20:33:29;;;;;;;26.60;13.70;;;;;;;18.89;71.82;99566.92;232826;215;140106;-61
2023/09/28 20:38:33;;;;;;;31.50;13.80;;;;;;;18.87;71.80;99564.21;233114;215;137679;-60
2023/09/28 20:43:38;;;;;;;24.20;14.00;;;;;;;18.80;71.67;99565.33;232725;214;148159;-60
2023/09/28 20:48:42;;;;;;;27.50;13.90;;;;;;;18.71;72.05;99572.24;232687;215;139790;-60
2023/09/28 20:53:47;;;;;;;24.80;13.60;;;;;;;18.65;72.08;99576.52;233039;215;137043;-59
2023/09/28 20:58:51;;;;;;;17.60;12.20;;;;;;;18.58;72.26;99578.39;232798;215;148505;-60
2023/09/28 21:03:56;;;;;;;22.70;12.50;;;;;;;18.50;72.42;99580.85;232854;215;139012;-60
2023/09/28 21:09:01;;;;;;;26.00;14.20;;;;;;;18.46;72.77;99579.64;233055;215;138544;-61
2023/09/28 21:14:07;;;;;;;20.20;12.70;;;;;;;18.43;72.77;99587.05;232929;215;147724;-60
2023/09/28 21:19:10;;;;;;;23.40;13.10;;;;;;;18.39;72.88;99588.86;232810;215;138767;-59
2023/09/28 21:24:14;;;;;;;23.50;13.90;;;;;;;18.34;73.09;99584.95;233032;215;136771;-59
2023/09/28 21:29:17;;;;;;;29.70;14.50;;;;;;;18.28;73.41;99586.00;232896;215;149846;-58
2023/09/28 21:34:22;;;;;;;25.70;13.20;;;;;;;18.20;73.50;99586.71;232850;215;139983;-56
2023/09/28 21:39:25;;;;;;;21.70;12.90;;;;;;;18.15;73.67;99590.00;232855;215;137766;-59
2023/09/28 21:44:29;;;;;;;26.90;14.80;;;;;;;18.13;73.71;99589.93;232866;215;147413;-60
2023/09/28 21:49:34;;;;;;;23.50;13.60;;;;;;;18.09;73.89;99585.63;232744;215;139663;-61
2023/09/28 21:54:37;;;;;;;26.40;13.30;;;;;;;18.06;73.93;99584.41;232876;215;136928;-58
2023/09/28 21:59:41;;;;;;;21.90;13.70;;;;;;;18.03;73.97;99588.54;232910;215;147692;-59
2023/09/28 22:04:45;;;;;;;22.10;13.00;;;;;;;17.96;74.04;99585.84;232757;215;139166;-60
2023/09/28 22:09:49;;;;;;;22.10;13.00;;;;;;;17.86;74.15;99587.37;232763;215;137150;-60
2023/09/28 22:14:53;;;;;;;22.80;13.20;;;;;;;17.80;74.33;99592.02;232900;215;147047;-59
2023/09/28 22:19:56;;;;;;;19.20;13.10;;;;;;;17.81;74.32;99594.12;232802;215;140652;-60
2023/09/28 22:25:02;;;;;;;21.50;13.10;;;;;;;17.78;74.45;99598.83;232959;215;136972;-60
2023/09/28 22:30:11;;;;;;;22.50;12.70;;;;;;;17.75;74.56;99596.20;232962;214;147588;-60
2023/09/28 22:35:14;;;;;;;21.70;13.30;;;;;;;17.72;74.51;99595.55;232807;215;139573;-60
2023/09/28 22:40:17;;;;;;;25.00;13.60;;;;;;;17.67;74.65;99597.52;232933;215;137566;-60
2023/09/28 22:45:31;;;;;;;19.50;12.10;;;;;;;17.61;74.72;99595.91;232837;215;147668;-59
2023/09/28 22:50:35;;;;;;;21.20;12.70;;;;;;;17.58;74.71;99599.75;232877;215;138804;-60
2023/09/28 22:55:39;;;;;;;21.00;13.40;;;;;;;17.57;74.75;99605.42;232777;214;137248;-59
2023/09/28 23:00:43;;;;;;;21.00;12.90;;;;;;;17.56;74.72;99606.91;232818;215;147617;-60
2023/09/28 23:05:47;;;;;;;19.00;12.60;;;;;;;17.53;74.77;99612.32;232896;215;138995;-60
2023/09/28 23:10:54;;;;;;;21.50;13.80;;;;;;;17.49;74.75;99609.23;232935;215;137477;-60
2023/09/28 23:15:57;;;;;;;19.50;12.80;;;;;;;17.45;74.86;99609.08;232843;215;147526;-61
2023/09/28 23:21:02;;;;;;;23.10;12.20;;;;;;;17.39;74.91;99601.85;232898;215;141889;-59
2023/09/28 23:26:10;;;;;;;21.20;12.10;;;;;;;17.34;75.16;99601.88;232772;214;138539;-60
2023/09/28 23:31:13;;;;;;;16.90;12.50;;;;;;;17.34;74.89;99605.50;232818;215;147260;-59
2023/09/28 23:36:18;;;;;;;22.30;12.40;;;;;;;17.34;74.78;99604.77;232883;215;139395;-61